Aeroporto :
LOGIN :

Iscrizione | Disclaimer

   EN    FR    IT 

 










Sommario :    VFR   VFR Marginale   IFR   IFR Intensivo   IFR Molto Intensivo
Visibilità : 
Base nubi : 
>= 8 km
>= 3000ft
5 / 8 km
1000 / 3000 ft
1500m / 5 km
500 / 1000 ft
800 / 1500m
200 / 500 ft
< 800m
< 200 ft
Simboli :   Temporali  Nebbia  Neve Forte  Precipitazioni Forti  Vento > 20 kt
SIGMETs :   Varie  Temporali  Ghiacco  Turbolenza  Onda orograficha  Ceneri Vulcaniche






- Altitudine del aeroporto : 1411 ft
- Codice IATA : GVA


LSGG - Genève Cointrin

ULTIMO METAR :
  • 092120Z VRB02KT 9999 VCSH FEW020 BKN035 05/02 Q1020 NOSIG

METARs OBSOLETI :
  • 092050Z 01007KT 310V050 9999 FEW010 SCT035 05/01 Q1019 NOSIG
  • 092020Z VRB02KT 9999 VCSH FEW020 BKN038 06/02 Q1019 NOSIG
  • 091950Z 01003KT 9999 VCSH FEW015 BKN035 05/03 Q1019 NOSIG
  • 091920Z VRB02KT 9999 FEW015 BKN035 05/03 Q1018 NOSIG
  • 091850Z 32003KT 250V030 9999 -SHRA FEW025 BKN035 06/02 Q1017 NOSIG

TAF TAF LSGG
Valido dal 09 a 21 ore il 11 a 03 ore UTC


092025Z 0921/1103 32005KT 9999 FEW015 BKN035 TX06/1015Z TN02/1006Z
TEMPO 0921/0924 SHRA
BECMG 1000/1003 SCT030
PROB30
TEMPO 1003/1008 MIFG
BECMG 1008/1011 04008KT CAVOK
BECMG 1017/1019 VRB03KT
ATIS : +41 22 417 40 81



MetMap, La meteo Aeronautica in un colpo d'occhio ! - Copyright ORBIFLY Dicembre 2007 - Disclaimer

ORBIFLY MET'MAP TEAM :

Programmazione e sviluppo : Alexandra Zaïnal
Concezione : Baudouin d'Aumeries
Aiuto per la programmazione : Marc-Olivier Méhu
Supporto tecnico e logistico : Manuel Goepfert
Aiuto per la traduzione : Arnaldo La Scala

Contatto : metmap@orbifly.com




FONTI E CREDITI :

   NOAA